sensor_id;sensor_type;location;lat;lon;timestamp;temperature;humidity
15384;DHT22;7790;53.022;12.968;2022-08-21T00:01:42;22.70;69.60
15384;DHT22;7790;53.022;12.968;2022-08-21T00:05:48;22.70;69.30
15384;DHT22;7790;53.022;12.968;2022-08-21T00:09:50;22.60;68.80
15384;DHT22;7790;53.022;12.968;2022-08-21T00:13:51;22.60;68.50
15384;DHT22;7790;53.022;12.968;2022-08-21T00:17:53;22.60;68.30
15384;DHT22;7790;53.022;12.968;2022-08-21T00:21:54;22.60;68.20
15384;DHT22;7790;53.022;12.968;2022-08-21T00:25:55;22.60;68.10
15384;DHT22;7790;53.022;12.968;2022-08-21T00:29:56;22.60;68.00
15384;DHT22;7790;53.022;12.968;2022-08-21T00:33:57;22.60;67.80
15384;DHT22;7790;53.022;12.968;2022-08-21T00:37:58;22.50;67.50
15384;DHT22;7790;53.022;12.968;2022-08-21T00:41:59;22.50;67.30
15384;DHT22;7790;53.022;12.968;2022-08-21T00:46:01;22.50;66.90
15384;DHT22;7790;53.022;12.968;2022-08-21T00:50:05;22.50;66.60
15384;DHT22;7790;53.022;12.968;2022-08-21T00:54:07;22.50;66.20
15384;DHT22;7790;53.022;12.968;2022-08-21T00:58:10;22.40;66.10
15384;DHT22;7790;53.022;12.968;2022-08-21T01:02:12;22.50;66.20
15384;DHT22;7790;53.022;12.968;2022-08-21T01:06:13;22.40;65.60
15384;DHT22;7790;53.022;12.968;2022-08-21T01:10:15;22.40;65.30
15384;DHT22;7790;53.022;12.968;2022-08-21T01:14:17;22.40;65.30
15384;DHT22;7790;53.022;12.968;2022-08-21T01:18:20;22.40;65.40
15384;DHT22;7790;53.022;12.968;2022-08-21T01:22:21;22.40;65.00
15384;DHT22;7790;53.022;12.968;2022-08-21T01:26:30;22.40;64.70
15384;DHT22;7790;53.022;12.968;2022-08-21T01:30:34;22.30;64.40
15384;DHT22;7790;53.022;12.968;2022-08-21T01:34:38;22.30;64.30
15384;DHT22;7790;53.022;12.968;2022-08-21T01:38:39;22.30;64.00
15384;DHT22;7790;53.022;12.968;2022-08-21T01:42:40;22.20;63.70
15384;DHT22;7790;53.022;12.968;2022-08-21T01:46:41;22.30;63.40
15384;DHT22;7790;53.022;12.968;2022-08-21T01:50:42;22.30;63.20
15384;DHT22;7790;53.022;12.968;2022-08-21T01:54:43;22.30;63.10
15384;DHT22;7790;53.022;12.968;2022-08-21T01:58:45;22.20;62.80
15384;DHT22;7790;53.022;12.968;2022-08-21T02:02:46;22.20;62.40
15384;DHT22;7790;53.022;12.968;2022-08-21T02:06:48;22.20;62.30
15384;DHT22;7790;53.022;12.968;2022-08-21T02:10:50;22.20;62.30
15384;DHT22;7790;53.022;12.968;2022-08-21T02:14:51;22.20;62.20
15384;DHT22;7790;53.022;12.968;2022-08-21T02:18:52;22.10;61.90
15384;DHT22;7790;53.022;12.968;2022-08-21T02:22:54;22.10;61.80
15384;DHT22;7790;53.022;12.968;2022-08-21T02:26:55;22.10;61.60
15384;DHT22;7790;53.022;12.968;2022-08-21T02:30:56;22.10;62.00
15384;DHT22;7790;53.022;12.968;2022-08-21T02:34:57;22.10;61.30
15384;DHT22;7790;53.022;12.968;2022-08-21T02:38:58;22.10;61.30
15384;DHT22;7790;53.022;12.968;2022-08-21T02:42:59;22.00;61.10
15384;DHT22;7790;53.022;12.968;2022-08-21T02:47:00;22.00;60.80
15384;DHT22;7790;53.022;12.968;2022-08-21T02:51:05;22.00;60.60
15384;DHT22;7790;53.022;12.968;2022-08-21T02:55:06;22.00;60.60
15384;DHT22;7790;53.022;12.968;2022-08-21T02:59:07;22.00;60.40
15384;DHT22;7790;53.022;12.968;2022-08-21T03:03:08;21.90;60.30
15384;DHT22;7790;53.022;12.968;2022-08-21T03:07:08;21.90;60.10
15384;DHT22;7790;53.022;12.968;2022-08-21T03:11:10;21.90;60.00
15384;DHT22;7790;53.022;12.968;2022-08-21T03:15:14;21.90;60.10
15384;DHT22;7790;53.022;12.968;2022-08-21T03:19:15;21.90;59.70
15384;DHT22;7790;53.022;12.968;2022-08-21T03:23:17;21.90;59.60
15384;DHT22;7790;53.022;12.968;2022-08-21T03:27:18;21.80;59.50
15384;DHT22;7790;53.022;12.968;2022-08-21T03:31:19;21.80;59.40
15384;DHT22;7790;53.022;12.968;2022-08-21T03:35:22;21.80;59.40
15384;DHT22;7790;53.022;12.968;2022-08-21T03:39:22;21.80;59.40
15384;DHT22;7790;53.022;12.968;2022-08-21T03:43:23;21.80;59.50
15384;DHT22;7790;53.022;12.968;2022-08-21T03:47:24;21.80;59.70
15384;DHT22;7790;53.022;12.968;2022-08-21T03:51:25;21.80;59.70
15384;DHT22;7790;53.022;12.968;2022-08-21T03:55:27;21.80;59.60
15384;DHT22;7790;53.022;12.968;2022-08-21T03:59:28;21.70;59.30
15384;DHT22;7790;53.022;12.968;2022-08-21T04:03:29;21.70;59.40
15384;DHT22;7790;53.022;12.968;2022-08-21T04:07:30;21.70;59.30
15384;DHT22;7790;53.022;12.968;2022-08-21T04:11:31;21.60;59.20
15384;DHT22;7790;53.022;12.968;2022-08-21T04:15:32;21.60;59.20
15384;DHT22;7790;53.022;12.968;2022-08-21T04:19:33;21.60;59.10
15384;DHT22;7790;53.022;12.968;2022-08-21T04:23:34;21.60;59.10
15384;DHT22;7790;53.022;12.968;2022-08-21T04:27:35;21.60;59.20
15384;DHT22;7790;53.022;12.968;2022-08-21T04:31:37;21.60;59.20
15384;DHT22;7790;53.022;12.968;2022-08-21T04:35:38;21.60;59.30
15384;DHT22;7790;53.022;12.968;2022-08-21T04:39:39;21.60;59.20
15384;DHT22;7790;53.022;12.968;2022-08-21T04:43:40;21.50;59.20
15384;DHT22;7790;53.022;12.968;2022-08-21T04:47:41;21.50;59.20
15384;DHT22;7790;53.022;12.968;2022-08-21T04:51:42;21.50;59.30
15384;DHT22;7790;53.022;12.968;2022-08-21T04:55:43;21.40;59.30
15384;DHT22;7790;53.022;12.968;2022-08-21T04:59:48;21.50;59.10
15384;DHT22;7790;53.022;12.968;2022-08-21T05:03:53;21.40;59.20
15384;DHT22;7790;53.022;12.968;2022-08-21T05:07:57;21.40;59.30
15384;DHT22;7790;53.022;12.968;2022-08-21T05:12:01;21.40;59.30
15384;DHT22;7790;53.022;12.968;2022-08-21T05:16:03;21.40;59.40
15384;DHT22;7790;53.022;12.968;2022-08-21T05:20:04;21.40;59.60
15384;DHT22;7790;53.022;12.968;2022-08-21T05:24:05;21.40;59.60
15384;DHT22;7790;53.022;12.968;2022-08-21T05:28:06;21.40;59.70
15384;DHT22;7790;53.022;12.968;2022-08-21T05:32:11;21.50;59.70
15384;DHT22;7790;53.022;12.968;2022-08-21T05:36:12;21.40;60.20
15384;DHT22;7790;53.022;12.968;2022-08-21T05:40:13;21.40;59.80
15384;DHT22;7790;53.022;12.968;2022-08-21T05:44:14;21.40;59.80
15384;DHT22;7790;53.022;12.968;2022-08-21T05:48:24;21.40;59.90
15384;DHT22;7790;53.022;12.968;2022-08-21T05:52:25;21.50;59.90
15384;DHT22;7790;53.022;12.968;2022-08-21T05:56:26;21.40;59.90
15384;DHT22;7790;53.022;12.968;2022-08-21T06:00:27;21.40;60.00
15384;DHT22;7790;53.022;12.968;2022-08-21T06:04:28;21.40;59.90
15384;DHT22;7790;53.022;12.968;2022-08-21T06:08:29;21.40;60.00
15384;DHT22;7790;53.022;12.968;2022-08-21T06:12:30;21.30;59.90
15384;DHT22;7790;53.022;12.968;2022-08-21T06:16:31;21.30;59.90
15384;DHT22;7790;53.022;12.968;2022-08-21T06:20:32;21.30;60.20
15384;DHT22;7790;53.022;12.968;2022-08-21T06:24:33;21.30;60.50
15384;DHT22;7790;53.022;12.968;2022-08-21T06:28:34;21.30;60.50
15384;DHT22;7790;53.022;12.968;2022-08-21T06:32:36;21.30;60.50
15384;DHT22;7790;53.022;12.968;2022-08-21T06:36:36;21.20;60.50
15384;DHT22;7790;53.022;12.968;2022-08-21T06:40:38;21.00;61.00
15384;DHT22;7790;53.022;12.968;2022-08-21T06:44:38;20.70;61.80
15384;DHT22;7790;53.022;12.968;2022-08-21T06:48:39;21.00;61.50
15384;DHT22;7790;53.022;12.968;2022-08-21T06:52:40;21.10;61.40
15384;DHT22;7790;53.022;12.968;2022-08-21T06:56:41;21.20;61.40
15384;DHT22;7790;53.022;12.968;2022-08-21T07:00:45;21.30;61.30
15384;DHT22;7790;53.022;12.968;2022-08-21T07:04:47;21.30;61.60
15384;DHT22;7790;53.022;12.968;2022-08-21T07:08:48;21.30;61.30
15384;DHT22;7790;53.022;12.968;2022-08-21T07:12:53;21.30;61.20
15384;DHT22;7790;53.022;12.968;2022-08-21T07:16:55;21.40;61.00
15384;DHT22;7790;53.022;12.968;2022-08-21T07:20:56;21.40;60.80
15384;DHT22;7790;53.022;12.968;2022-08-21T07:24:57;21.40;60.60
15384;DHT22;7790;53.022;12.968;2022-08-21T07:28:58;21.40;60.50
15384;DHT22;7790;53.022;12.968;2022-08-21T07:32:59;21.40;60.40
15384;DHT22;7790;53.022;12.968;2022-08-21T07:36:59;21.40;60.20
15384;DHT22;7790;53.022;12.968;2022-08-21T07:41:01;21.40;60.40
15384;DHT22;7790;53.022;12.968;2022-08-21T07:45:03;21.50;60.30
15384;DHT22;7790;53.022;12.968;2022-08-21T07:49:04;21.50;60.40
15384;DHT22;7790;53.022;12.968;2022-08-21T07:53:05;21.50;60.30
15384;DHT22;7790;53.022;12.968;2022-08-21T07:57:06;21.50;60.10
15384;DHT22;7790;53.022;12.968;2022-08-21T08:01:06;21.50;59.90
15384;DHT22;7790;53.022;12.968;2022-08-21T08:05:09;21.50;59.50
15384;DHT22;7790;53.022;12.968;2022-08-21T08:09:11;21.50;59.40
15384;DHT22;7790;53.022;12.968;2022-08-21T08:13:12;21.60;59.10
15384;DHT22;7790;53.022;12.968;2022-08-21T08:17:13;21.60;58.20
15384;DHT22;7790;53.022;12.968;2022-08-21T08:21:14;21.60;58.80
15384;DHT22;7790;53.022;12.968;2022-08-21T08:25:16;21.60;59.10
15384;DHT22;7790;53.022;12.968;2022-08-21T08:29:17;21.60;58.60
15384;DHT22;7790;53.022;12.968;2022-08-21T08:33:19;21.60;58.40
15384;DHT22;7790;53.022;12.968;2022-08-21T08:37:20;21.70;58.70
15384;DHT22;7790;53.022;12.968;2022-08-21T08:41:21;21.70;58.80
15384;DHT22;7790;53.022;12.968;2022-08-21T08:45:23;21.70;58.60
15384;DHT22;7790;53.022;12.968;2022-08-21T08:49:39;21.70;58.20
15384;DHT22;7790;53.022;12.968;2022-08-21T08:53:57;21.70;58.10
15384;DHT22;7790;53.022;12.968;2022-08-21T08:57:59;21.70;57.80
15384;DHT22;7790;53.022;12.968;2022-08-21T09:02:04;21.80;57.90
15384;DHT22;7790;53.022;12.968;2022-08-21T09:10:28;21.80;57.80
15384;DHT22;7790;53.022;12.968;2022-08-21T09:23:47;21.90;57.20
15384;DHT22;7790;53.022;12.968;2022-08-21T09:27:50;21.90;56.70
15384;DHT22;7790;53.022;12.968;2022-08-21T09:31:51;21.90;56.80
15384;DHT22;7790;53.022;12.968;2022-08-21T09:35:54;22.00;56.80
15384;DHT22;7790;53.022;12.968;2022-08-21T09:39:58;22.00;57.10
15384;DHT22;7790;53.022;12.968;2022-08-21T09:43:59;22.00;57.00
15384;DHT22;7790;53.022;12.968;2022-08-21T09:48:21;22.10;57.20
15384;DHT22;7790;53.022;12.968;2022-08-21T09:52:25;22.10;56.40
15384;DHT22;7790;53.022;12.968;2022-08-21T09:56:32;22.20;56.00
15384;DHT22;7790;53.022;12.968;2022-08-21T10:00:58;22.10;56.50
15384;DHT22;7790;53.022;12.968;2022-08-21T10:05:08;22.10;56.90
15384;DHT22;7790;53.022;12.968;2022-08-21T10:09:19;22.20;56.00
15384;DHT22;7790;53.022;12.968;2022-08-21T10:30:36;22.20;55.60
15384;DHT22;7790;53.022;12.968;2022-08-21T10:39:28;22.30;55.60
15384;DHT22;7790;53.022;12.968;2022-08-21T10:48:06;22.40;55.20
15384;DHT22;7790;53.022;12.968;2022-08-21T10:52:33;22.40;55.70
15384;DHT22;7790;53.022;12.968;2022-08-21T10:56:40;22.40;56.40
15384;DHT22;7790;53.022;12.968;2022-08-21T11:00:51;22.50;55.90
15384;DHT22;7790;53.022;12.968;2022-08-21T11:05:05;22.50;56.20
15384;DHT22;7790;53.022;12.968;2022-08-21T11:09:16;22.50;56.20
15384;DHT22;7790;53.022;12.968;2022-08-21T11:13:27;22.60;56.30
15384;DHT22;7790;53.022;12.968;2022-08-21T11:17:42;22.60;56.60
15384;DHT22;7790;53.022;12.968;2022-08-21T11:26:19;22.60;55.90
15384;DHT22;7790;53.022;12.968;2022-08-21T11:30:27;22.60;56.00
15384;DHT22;7790;53.022;12.968;2022-08-21T11:47:49;22.80;56.80
15384;DHT22;7790;53.022;12.968;2022-08-21T11:56:15;22.80;56.50
15384;DHT22;7790;53.022;12.968;2022-08-21T12:00:25;22.80;56.80
15384;DHT22;7790;53.022;12.968;2022-08-21T12:04:35;22.80;56.60
15384;DHT22;7790;53.022;12.968;2022-08-21T12:08:45;22.90;55.90
15384;DHT22;7790;53.022;12.968;2022-08-21T12:12:46;22.80;55.90
15384;DHT22;7790;53.022;12.968;2022-08-21T12:16:49;22.80;55.00
15384;DHT22;7790;53.022;12.968;2022-08-21T12:21:00;22.80;54.70
15384;DHT22;7790;53.022;12.968;2022-08-21T12:25:09;22.80;54.50
15384;DHT22;7790;53.022;12.968;2022-08-21T12:29:21;22.90;55.50
15384;DHT22;7790;53.022;12.968;2022-08-21T12:33:38;22.90;55.60
15384;DHT22;7790;53.022;12.968;2022-08-21T12:37:43;22.90;55.70
15384;DHT22;7790;53.022;12.968;2022-08-21T12:42:06;22.90;55.80
15384;DHT22;7790;53.022;12.968;2022-08-21T12:46:27;22.90;56.00
15384;DHT22;7790;53.022;12.968;2022-08-21T12:50:48;22.90;56.00
15384;DHT22;7790;53.022;12.968;2022-08-21T12:54:50;22.90;56.10
15384;DHT22;7790;53.022;12.968;2022-08-21T12:58:56;22.90;56.20
15384;DHT22;7790;53.022;12.968;2022-08-21T13:02:57;22.90;56.40
15384;DHT22;7790;53.022;12.968;2022-08-21T13:06:58;22.90;56.50
15384;DHT22;7790;53.022;12.968;2022-08-21T13:11:03;22.90;56.60
15384;DHT22;7790;53.022;12.968;2022-08-21T13:15:05;22.90;56.70
15384;DHT22;7790;53.022;12.968;2022-08-21T13:19:07;22.90;56.80
15384;DHT22;7790;53.022;12.968;2022-08-21T13:23:29;22.90;56.80
15384;DHT22;7790;53.022;12.968;2022-08-21T13:27:30;22.90;56.80
15384;DHT22;7790;53.022;12.968;2022-08-21T13:31:31;22.90;56.90
15384;DHT22;7790;53.022;12.968;2022-08-21T13:36:05;22.90;56.90
15384;DHT22;7790;53.022;12.968;2022-08-21T13:40:20;22.90;57.00
15384;DHT22;7790;53.022;12.968;2022-08-21T13:44:33;22.90;57.10
15384;DHT22;7790;53.022;12.968;2022-08-21T13:48:35;22.90;57.20
15384;DHT22;7790;53.022;12.968;2022-08-21T13:52:53;22.90;57.20
15384;DHT22;7790;53.022;12.968;2022-08-21T13:56:55;22.90;57.30
15384;DHT22;7790;53.022;12.968;2022-08-21T14:00:56;22.90;57.30
15384;DHT22;7790;53.022;12.968;2022-08-21T14:05:02;22.90;57.30
15384;DHT22;7790;53.022;12.968;2022-08-21T14:09:26;22.90;57.20
15384;DHT22;7790;53.022;12.968;2022-08-21T14:13:38;22.90;57.10
15384;DHT22;7790;53.022;12.968;2022-08-21T14:17:40;23.00;57.30
15384;DHT22;7790;53.022;12.968;2022-08-21T14:21:42;23.00;57.60
15384;DHT22;7790;53.022;12.968;2022-08-21T14:25:46;23.00;57.80
15384;DHT22;7790;53.022;12.968;2022-08-21T14:29:47;23.00;58.00
15384;DHT22;7790;53.022;12.968;2022-08-21T14:33:48;23.00;58.20
15384;DHT22;7790;53.022;12.968;2022-08-21T14:37:50;23.00;58.00
15384;DHT22;7790;53.022;12.968;2022-08-21T14:41:52;23.10;58.00
15384;DHT22;7790;53.022;12.968;2022-08-21T14:45:53;23.10;58.10
15384;DHT22;7790;53.022;12.968;2022-08-21T14:49:54;23.10;58.30
15384;DHT22;7790;53.022;12.968;2022-08-21T14:53:55;23.10;58.30
15384;DHT22;7790;53.022;12.968;2022-08-21T14:57:57;23.10;58.40
15384;DHT22;7790;53.022;12.968;2022-08-21T15:01:58;23.10;58.40
15384;DHT22;7790;53.022;12.968;2022-08-21T15:05:59;23.00;58.40
15384;DHT22;7790;53.022;12.968;2022-08-21T15:10:00;23.00;58.10
15384;DHT22;7790;53.022;12.968;2022-08-21T15:14:03;23.10;57.90
15384;DHT22;7790;53.022;12.968;2022-08-21T15:18:07;23.00;57.90
15384;DHT22;7790;53.022;12.968;2022-08-21T15:22:09;23.10;57.90
15384;DHT22;7790;53.022;12.968;2022-08-21T15:26:10;23.00;57.80
15384;DHT22;7790;53.022;12.968;2022-08-21T15:30:11;23.00;57.70
15384;DHT22;7790;53.022;12.968;2022-08-21T15:34:12;23.00;57.70
15384;DHT22;7790;53.022;12.968;2022-08-21T15:38:14;23.00;57.50
15384;DHT22;7790;53.022;12.968;2022-08-21T15:42:14;23.00;57.60
15384;DHT22;7790;53.022;12.968;2022-08-21T15:46:17;23.00;57.50
15384;DHT22;7790;53.022;12.968;2022-08-21T15:50:20;23.00;57.30
15384;DHT22;7790;53.022;12.968;2022-08-21T15:54:21;23.00;57.30
15384;DHT22;7790;53.022;12.968;2022-08-21T15:58:22;23.00;57.20
15384;DHT22;7790;53.022;12.968;2022-08-21T16:02:31;23.00;57.30
15384;DHT22;7790;53.022;12.968;2022-08-21T16:06:33;23.00;57.20
15384;DHT22;7790;53.022;12.968;2022-08-21T16:10:34;23.00;57.20
15384;DHT22;7790;53.022;12.968;2022-08-21T16:14:36;23.00;57.20
15384;DHT22;7790;53.022;12.968;2022-08-21T16:18:38;23.00;57.00
15384;DHT22;7790;53.022;12.968;2022-08-21T16:22:39;23.00;57.00
15384;DHT22;7790;53.022;12.968;2022-08-21T16:26:40;23.00;57.00
15384;DHT22;7790;53.022;12.968;2022-08-21T16:30:42;23.00;57.00
15384;DHT22;7790;53.022;12.968;2022-08-21T16:34:46;23.00;57.10
15384;DHT22;7790;53.022;12.968;2022-08-21T16:38:48;23.00;57.10
15384;DHT22;7790;53.022;12.968;2022-08-21T16:42:49;23.00;57.10
15384;DHT22;7790;53.022;12.968;2022-08-21T16:46:50;23.00;56.90
15384;DHT22;7790;53.022;12.968;2022-08-21T16:50:51;23.00;56.90
15384;DHT22;7790;53.022;12.968;2022-08-21T16:54:52;23.00;56.90
15384;DHT22;7790;53.022;12.968;2022-08-21T16:58:54;23.00;56.70
15384;DHT22;7790;53.022;12.968;2022-08-21T17:02:55;23.00;56.70
15384;DHT22;7790;53.022;12.968;2022-08-21T17:06:56;23.00;56.70
15384;DHT22;7790;53.022;12.968;2022-08-21T17:10:57;22.90;57.20
15384;DHT22;7790;53.022;12.968;2022-08-21T17:15:05;22.90;57.30
15384;DHT22;7790;53.022;12.968;2022-08-21T17:19:07;22.90;57.50
15384;DHT22;7790;53.022;12.968;2022-08-21T17:23:08;22.90;57.40
15384;DHT22;7790;53.022;12.968;2022-08-21T17:27:09;22.80;56.10
15384;DHT22;7790;53.022;12.968;2022-08-21T17:31:11;22.80;56.90
15384;DHT22;7790;53.022;12.968;2022-08-21T17:35:12;22.90;56.80
15384;DHT22;7790;53.022;12.968;2022-08-21T17:39:13;22.80;56.50
15384;DHT22;7790;53.022;12.968;2022-08-21T17:43:16;22.80;56.30
15384;DHT22;7790;53.022;12.968;2022-08-21T17:47:17;22.80;56.70
15384;DHT22;7790;53.022;12.968;2022-08-21T17:51:18;22.80;56.90
15384;DHT22;7790;53.022;12.968;2022-08-21T17:55:19;22.80;56.70
15384;DHT22;7790;53.022;12.968;2022-08-21T17:59:22;22.80;56.80
15384;DHT22;7790;53.022;12.968;2022-08-21T18:03:23;22.80;56.20
15384;DHT22;7790;53.022;12.968;2022-08-21T18:07:24;22.80;56.60
15384;DHT22;7790;53.022;12.968;2022-08-21T18:11:27;22.70;56.90
15384;DHT22;7790;53.022;12.968;2022-08-21T18:15:28;22.70;56.60
15384;DHT22;7790;53.022;12.968;2022-08-21T18:19:29;22.70;56.40
15384;DHT22;7790;53.022;12.968;2022-08-21T18:23:30;22.70;56.40
15384;DHT22;7790;53.022;12.968;2022-08-21T18:27:31;22.70;56.70
15384;DHT22;7790;53.022;12.968;2022-08-21T18:31:34;22.70;57.10
15384;DHT22;7790;53.022;12.968;2022-08-21T18:35:35;22.70;57.10
15384;DHT22;7790;53.022;12.968;2022-08-21T18:39:36;22.70;57.00
15384;DHT22;7790;53.022;12.968;2022-08-21T18:43:37;22.70;57.20
15384;DHT22;7790;53.022;12.968;2022-08-21T18:47:44;22.70;57.30
15384;DHT22;7790;53.022;12.968;2022-08-21T18:51:45;22.70;57.30
15384;DHT22;7790;53.022;12.968;2022-08-21T18:55:46;22.70;59.00
15384;DHT22;7790;53.022;12.968;2022-08-21T18:59:47;22.70;58.20
15384;DHT22;7790;53.022;12.968;2022-08-21T19:03:48;22.70;58.00
15384;DHT22;7790;53.022;12.968;2022-08-21T19:07:50;22.70;58.00
15384;DHT22;7790;53.022;12.968;2022-08-21T19:11:52;22.70;57.90
15384;DHT22;7790;53.022;12.968;2022-08-21T19:15:54;22.80;57.90
15384;DHT22;7790;53.022;12.968;2022-08-21T19:20:00;22.70;58.00
15384;DHT22;7790;53.022;12.968;2022-08-21T19:24:04;22.80;58.20
15384;DHT22;7790;53.022;12.968;2022-08-21T19:28:07;22.80;58.20
15384;DHT22;7790;53.022;12.968;2022-08-21T19:32:11;22.70;58.20
15384;DHT22;7790;53.022;12.968;2022-08-21T19:36:12;22.70;58.70
15384;DHT22;7790;53.022;12.968;2022-08-21T19:40:14;22.80;58.20
15384;DHT22;7790;53.022;12.968;2022-08-21T19:44:19;22.70;58.20
15384;DHT22;7790;53.022;12.968;2022-08-21T19:48:20;22.70;58.20
15384;DHT22;7790;53.022;12.968;2022-08-21T19:52:21;22.70;58.30
15384;DHT22;7790;53.022;12.968;2022-08-21T19:56:25;22.70;58.20
15384;DHT22;7790;53.022;12.968;2022-08-21T20:00:26;22.70;58.00
15384;DHT22;7790;53.022;12.968;2022-08-21T20:04:27;22.70;58.00
15384;DHT22;7790;53.022;12.968;2022-08-21T20:08:28;22.70;57.80
15384;DHT22;7790;53.022;12.968;2022-08-21T20:12:29;22.70;57.80
15384;DHT22;7790;53.022;12.968;2022-08-21T20:16:30;22.70;57.70
15384;DHT22;7790;53.022;12.968;2022-08-21T20:20:31;22.70;57.80
15384;DHT22;7790;53.022;12.968;2022-08-21T20:24:31;22.70;57.70
15384;DHT22;7790;53.022;12.968;2022-08-21T20:28:34;22.60;57.60
15384;DHT22;7790;53.022;12.968;2022-08-21T20:32:35;22.60;57.60
15384;DHT22;7790;53.022;12.968;2022-08-21T20:36:36;22.60;57.60
15384;DHT22;7790;53.022;12.968;2022-08-21T20:40:37;22.60;57.70
15384;DHT22;7790;53.022;12.968;2022-08-21T20:44:38;22.60;57.70
15384;DHT22;7790;53.022;12.968;2022-08-21T20:48:39;22.60;57.70
15384;DHT22;7790;53.022;12.968;2022-08-21T20:52:40;22.60;57.70
15384;DHT22;7790;53.022;12.968;2022-08-21T21:00:48;22.60;57.80
15384;DHT22;7790;53.022;12.968;2022-08-21T21:09:16;22.60;57.80
15384;DHT22;7790;53.022;12.968;2022-08-21T21:13:40;22.60;57.80
15384;DHT22;7790;53.022;12.968;2022-08-21T21:17:49;22.60;57.60
15384;DHT22;7790;53.022;12.968;2022-08-21T21:22:05;22.50;57.70
15384;DHT22;7790;53.022;12.968;2022-08-21T21:26:24;22.50;57.80
15384;DHT22;7790;53.022;12.968;2022-08-21T21:30:36;22.50;57.60
15384;DHT22;7790;53.022;12.968;2022-08-21T21:34:40;22.50;57.70
15384;DHT22;7790;53.022;12.968;2022-08-21T21:38:49;22.50;57.40
15384;DHT22;7790;53.022;12.968;2022-08-21T21:56:06;22.40;57.10
15384;DHT22;7790;53.022;12.968;2022-08-21T22:00:24;22.40;57.10
15384;DHT22;7790;53.022;12.968;2022-08-21T22:04:39;22.40;56.90
15384;DHT22;7790;53.022;12.968;2022-08-21T22:09:00;22.40;57.10
15384;DHT22;7790;53.022;12.968;2022-08-21T22:13:15;22.40;56.90
15384;DHT22;7790;53.022;12.968;2022-08-21T22:22:02;22.30;56.90
15384;DHT22;7790;53.022;12.968;2022-08-21T22:26:08;22.40;56.80
15384;DHT22;7790;53.022;12.968;2022-08-21T22:30:15;22.40;56.70
15384;DHT22;7790;53.022;12.968;2022-08-21T22:34:17;22.30;56.60
15384;DHT22;7790;53.022;12.968;2022-08-21T22:42:25;22.30;56.60
15384;DHT22;7790;53.022;12.968;2022-08-21T22:50:31;22.30;56.40
15384;DHT22;7790;53.022;12.968;2022-08-21T22:54:36;22.20;56.30
15384;DHT22;7790;53.022;12.968;2022-08-21T22:59:00;22.20;56.40
15384;DHT22;7790;53.022;12.968;2022-08-21T23:03:01;22.30;56.30
15384;DHT22;7790;53.022;12.968;2022-08-21T23:07:03;22.20;56.20
15384;DHT22;7790;53.022;12.968;2022-08-21T23:11:17;22.30;56.10
15384;DHT22;7790;53.022;12.968;2022-08-21T23:15:22;22.20;55.80
15384;DHT22;7790;53.022;12.968;2022-08-21T23:19:41;22.20;55.80
15384;DHT22;7790;53.022;12.968;2022-08-21T23:33:08;22.10;55.80
15384;DHT22;7790;53.022;12.968;2022-08-21T23:37:39;22.10;55.70
15384;DHT22;7790;53.022;12.968;2022-08-21T23:42:21;22.10;55.70
15384;DHT22;7790;53.022;12.968;2022-08-21T23:46:42;22.10;55.60
15384;DHT22;7790;53.022;12.968;2022-08-21T23:50:56;22.10;55.60
